Latest Weather Observations for Pound Creek

IDV60801

Issued at 4:35 pm EST Wednesday 30 July 2014 (issued every 30 minutes, with the page automatically refreshed every 10 minutes)

About weather observations | Map of weather stations | Latest weather observations for VIC | Other Formats
Station Details ID: 085099 Name: POUND CREEK Lat: -38.63 Lon: 145.81 Height: 3.0 m
Data from the previous 72 hours. | See also: Recent months at Pound Creek
Date/Time
EST
Temp
°C
App
Temp
°C
Dew
Point
Rel
Hum
%
Delta-T
°C
Wind Press
QNH
hPa
Press
MSL
hPa
Rain
since 9 am
mm
Dir
 
Spd
km/h
Gust
km/h
Spd
kts
Gust
kts
30/04:30pm 14.6 12.2 12.5 87 1.1 WNW 17 32 9 17 1007.7 - 0.0
30/04:00pm 14.9 11.9 12.6 86 1.3 NW 20 33 11 18 1007.6 1007.6 0.0
30/03:30pm 15.4 12.3 12.2 81 1.7 NW 20 35 11 19 1007.4 - 0.0
30/03:00pm 15.7 11.4 12.1 79 2.0 NW 26 43 14 23 1007.6 1007.6 0.0
30/02:52pm 16.0 11.3 12.0 77 2.2 NW 28 50 15 27 1007.6 - 0.0
30/02:30pm 15.9 12.1 11.3 74 2.5 NW 22 46 12 25 1007.8 - 0.0
30/02:00pm 16.6 13.2 11.1 70 3.0 WNW 20 33 11 18 1007.7 1007.7 0.0
30/01:30pm 16.0 11.8 11.0 72 2.7 WNW 24 44 13 24 1008.0 - 0.0
30/01:00pm 16.1 12.1 10.6 70 2.9 NW 22 37 12 20 1008.5 1008.5 0.0
30/12:30pm 16.8 13.5 11.5 71 2.9 NW 20 44 11 24 1009.1 - 0.0
30/12:00pm 16.3 12.2 11.5 73 2.6 NW 24 41 13 22 1009.4 1009.4 0.0
30/11:30am 15.4 12.4 11.8 79 1.9 NW 19 33 10 18 1010.3 - 0.0
30/11:00am 15.1 11.3 11.1 77 2.1 NW 22 33 12 18 1010.6 1010.6 0.0
30/10:30am 15.3 10.2 10.7 74 2.4 NW 28 44 15 24 1010.4 - 0.0
30/10:00am 14.2 9.7 10.2 77 2.1 NW 24 41 13 22 1010.8 1010.8 0.0
30/09:30am 14.5 11.0 10.3 76 2.2 NW 19 33 10 18 1010.5 - 0.0
30/09:00am 13.6 10.0 9.8 78 2.0 NW 19 30 10 16 1010.2 1010.2 2.6
30/08:30am 13.0 9.1 9.4 79 1.8 NW 20 32 11 17 1010.5 - 2.6
30/08:00am 12.6 8.9 9.4 81 1.6 NW 19 32 10 17 1010.3 1010.3 2.6
30/07:30am 12.1 8.7 9.3 83 1.4 NW 17 33 9 18 1010.3 - 2.6
30/07:00am 12.3 8.0 9.3 82 1.5 NW 22 43 12 23 1010.2 1010.2 2.6
30/06:30am 12.1 8.3 9.8 86 1.2 NW 20 30 11 16 1010.0 - 2.6
30/06:00am 12.3 8.7 10.0 86 1.2 NW 19 32 10 17 1009.8 1009.8 2.6
30/05:30am 12.4 9.0 10.6 89 0.9 NW 19 30 10 16 1009.4 - 2.6
30/05:00am 12.4 9.2 10.1 86 1.2 WNW 17 33 9 18 1009.4 1009.4 2.6
30/04:30am 12.6 8.6 10.5 87 1.1 WNW 22 43 12 23 1009.2 - 2.6
30/04:00am 12.9 9.6 11.0 88 1.0 WNW 19 35 10 19 1009.1 1009.1 2.6
30/03:30am 12.9 9.7 11.1 89 0.9 WNW 19 30 10 16 1009.1 - 2.6
30/03:00am 12.6 9.6 10.8 89 0.9 NW 17 33 9 18 1009.1 1009.1 2.4
30/02:30am 13.0 10.0 10.5 85 1.3 WNW 17 32 9 17 1009.1 - 2.4
30/02:00am 13.0 9.4 10.7 86 1.2 WNW 20 37 11 20 1008.9 1008.9 2.4
30/01:30am 12.7 9.7 11.8 94 0.5 WNW 19 35 10 19 1009.0 - 2.4
30/01:00am 12.7 8.7 11.8 94 0.5 WNW 24 35 13 19 1008.7 1008.7 2.2
30/12:42am 13.1 8.3 11.7 91 0.7 WNW 28 52 15 28 1008.2 - 1.8
30/12:30am 13.2 9.2 11.8 91 0.7 NW 24 46 13 25 1008.4 - 1.8
30/12:00am 13.5 9.4 11.6 88 1.0 WNW 24 48 13 26 1008.4 1008.4 1.4
 
Date/Time
EST
Temp
°C
App
Temp
°C
Dew
Point
Rel
Hum
%
Delta-T
°C
Wind Press
QNH
hPa
Press
MSL
hPa
Rain
since 9 am
mm
Dir
 
Spd
km/h
Gust
km/h
Spd
kts
Gust
kts
29/11:30pm 13.6 9.0 11.1 85 1.3 WNW 26 50 14 27 1008.0 - 1.4
29/11:00pm 13.1 10.3 11.5 90 0.9 NW 17 33 9 18 1008.2 1008.2 1.4
29/10:30pm 12.6 8.8 11.2 91 0.7 WNW 22 39 12 21 1008.0 - 1.4
29/10:11pm 13.4 8.4 10.9 85 1.3 WNW 28 52 15 28 1007.8 - 1.2
29/10:00pm 13.8 8.9 11.3 85 1.3 WNW 28 44 15 24 1007.7 1007.7 1.2
29/09:33pm 14.4 9.4 11.0 80 1.8 WNW 28 50 15 27 1007.4 - 1.2
29/09:30pm 14.5 10.3 11.1 80 1.8 WNW 24 50 13 27 1007.4 - 1.2
29/09:00pm 14.3 8.7 11.6 84 1.4 NW 32 54 17 29 1006.5 1006.5 1.2
29/08:33pm 14.5 9.6 11.3 81 1.7 NW 28 46 15 25 1006.2 - 1.2
29/08:30pm 14.5 10.0 11.3 81 1.7 NW 26 44 14 24 1006.3 - 1.2
29/08:00pm 14.5 10.3 11.1 80 1.8 NW 24 44 13 24 1006.3 1006.3 1.2
29/07:30pm 14.5 9.9 11.1 80 1.8 NW 26 44 14 24 1006.0 - 1.2
29/07:05pm 14.4 9.5 11.2 81 1.7 NW 28 48 15 26 1005.8 - 1.2
29/07:00pm 14.1 9.2 11.4 84 1.4 NW 28 44 15 24 1005.8 1005.8 1.2
29/06:32pm 13.6 8.7 11.3 86 1.2 NNW 28 52 15 28 1005.3 - 0.8
29/06:30pm 13.6 8.7 11.3 86 1.2 NNW 28 43 15 23 1005.4 - 0.8
29/06:00pm 13.2 7.9 11.4 89 1.0 NNW 30 52 16 28 1005.1 1005.1 0.8
29/05:30pm 13.3 7.0 11.2 87 1.1 NNW 35 57 19 31 1004.9 - 0.6
29/05:08pm 12.8 7.4 11.0 89 0.9 NW 30 48 16 26 1005.0 - 0.4
29/05:00pm 12.7 6.9 10.9 89 0.9 NW 32 46 17 25 1005.0 1005.0 0.4
29/04:30pm 13.6 7.1 10.4 81 1.7 NNW 35 56 19 30 1004.4 - 0.2
29/04:00pm 13.9 8.3 10.3 79 1.9 NNW 30 50 16 27 1004.4 1004.4 0.2
29/03:30pm 13.0 6.6 10.7 86 1.2 NW 35 57 19 31 1004.6 - 0.2
29/03:00pm 14.9 8.2 9.7 71 2.7 NNW 35 59 19 32 1003.8 1003.8 0.0
29/02:32pm 14.7 8.5 9.3 70 2.8 NNW 32 54 17 29 1004.0 - 0.0
29/02:30pm 14.7 8.5 9.3 70 2.8 NNW 32 48 17 26 1004.0 - 0.0
29/02:00pm 14.9 7.4 9.3 69 2.9 NW 39 70 21 38 1004.0 1004.0 0.0
29/01:30pm 14.7 8.2 9.1 69 2.9 NW 33 61 18 33 1004.2 - 0.0
29/01:00pm 14.8 8.9 9.0 68 3.0 NNW 30 52 16 28 1004.4 1004.4 0.0
29/12:30pm 14.7 7.4 8.9 68 2.9 NNW 37 59 20 32 1004.3 - 0.0
29/12:00pm 14.6 7.3 8.8 68 3.0 NNW 37 67 20 36 1005.0 1005.0 0.0
29/11:30am 14.7 7.7 8.4 66 3.2 NNW 35 54 19 29 1005.7 - 0.0
29/11:01am 14.4 7.8 8.4 67 3.0 NNW 33 56 18 30 1006.2 - 0.0
29/11:00am 14.4 7.8 8.4 67 3.0 NNW 33 50 18 27 1006.2 1006.2 0.0
29/10:39am 14.7 8.6 8.4 66 3.2 NNW 30 48 16 26 1006.2 - 0.0
29/10:30am 14.5 8.8 8.5 67 3.0 NNW 28 43 15 23 1006.3 - 0.0
29/10:00am 14.1 8.0 8.1 67 3.0 NNW 30 54 16 29 1006.0 1006.0 0.0
29/09:30am 14.1 7.0 8.1 67 3.0 NNW 35 54 19 29 1006.6 - 0.0
29/09:00am 13.8 7.1 8.0 68 2.9 NNW 33 63 18 34 1006.8 1006.8 0.0
29/08:34am 13.5 6.7 7.7 68 2.9 NNW 33 56 18 30 1006.7 - 0.0
29/08:30am 13.4 6.8 7.8 69 2.8 NNW 32 46 17 25 1006.7 - 0.0
29/08:00am 13.4 7.2 7.8 69 2.8 NNW 30 52 16 28 1006.8 1006.8 0.0
29/07:30am 13.5 7.6 7.7 68 2.9 NNW 28 50 15 27 1006.8 - 0.0
29/07:00am 13.4 6.8 7.8 69 2.8 NNW 32 50 17 27 1006.8 1006.8 0.0
29/06:35am 13.3 7.1 8.0 70 2.6 NNW 30 48 16 26 1006.7 - 0.0
29/06:30am 13.4 6.8 7.8 69 2.8 NNW 32 50 17 27 1006.6 - 0.0
29/06:03am 13.4 7.2 8.0 70 2.7 NNW 30 50 16 27 1006.4 - 0.0
29/06:00am 13.3 7.1 8.0 70 2.6 NNW 30 48 16 26 1006.5 1006.5 0.0
29/05:30am 13.3 7.1 8.0 70 2.6 NNW 30 46 16 25 1006.9 - 0.0
29/05:00am 13.3 7.4 7.7 69 2.8 NNW 28 52 15 28 1007.0 1007.0 0.0
29/04:30am 13.1 6.9 7.8 70 2.6 NNW 30 48 16 26 1007.0 - 0.0
29/04:21am 13.2 7.0 7.9 70 2.6 NNW 30 48 16 26 1007.1 - 0.0
29/04:00am 13.0 7.1 7.7 70 2.6 NNW 28 46 15 25 1007.3 1007.3 0.0
29/03:30am 13.2 7.3 7.6 69 2.7 NNW 28 44 15 24 1007.5 - 0.0
29/03:00am 13.0 7.9 7.7 70 2.6 NNW 24 39 13 21 1007.9 1007.9 0.0
29/02:41am 13.0 7.1 7.5 69 2.7 NNW 28 48 15 26 1008.2 - 0.0
29/02:30am 13.1 7.2 7.5 69 2.7 NNW 28 46 15 25 1008.4 - 0.0
29/02:00am 13.1 8.0 7.8 70 2.6 NNW 24 37 13 20 1008.8 1008.8 0.0
29/01:30am 13.2 8.2 7.9 70 2.6 NNW 24 41 13 22 1009.1 - 0.0
29/01:00am 13.0 8.7 7.9 71 2.5 NNW 20 37 11 20 1009.6 1009.6 0.0
29/12:30am 12.8 8.5 7.7 71 2.5 NNW 20 32 11 17 1010.1 - 0.0
29/12:00am 12.9 8.2 7.8 71 2.5 NNW 22 33 12 18 1010.4 1010.4 0.0
 
Date/Time
EST
Temp
°C
App
Temp
°C
Dew
Point
Rel
Hum
%
Delta-T
°C
Wind Press
QNH
hPa
Press
MSL
hPa
Rain
since 9 am
mm
Dir
 
Spd
km/h
Gust
km/h
Spd
kts
Gust
kts
28/11:30pm 13.2 8.8 7.6 69 2.7 NNW 20 35 11 19 1010.7 - 0.0
28/11:00pm 13.5 8.4 7.7 68 2.9 NNW 24 35 13 19 1010.9 1010.9 0.0
28/10:30pm 13.8 8.7 7.6 66 3.0 NNW 24 44 13 24 1011.0 - 0.0
28/10:00pm 13.7 8.9 7.5 66 3.0 NNW 22 35 12 19 1011.0 1011.0 0.0
28/09:30pm 13.6 8.5 7.6 67 2.9 NNW 24 43 13 23 1011.0 - 0.0
28/09:00pm 13.7 8.6 7.5 66 3.0 NNW 24 41 13 22 1010.9 1010.9 0.0
28/08:30pm 13.3 9.5 7.5 68 2.8 NNW 17 26 9 14 1011.3 - 0.0
28/08:00pm 12.9 9.4 7.4 69 2.7 NNW 15 24 8 13 1011.4 1011.4 0.0
28/07:30pm 13.1 9.6 7.3 68 2.8 NNW 15 20 8 11 1011.1 - 0.0
28/07:00pm 13.7 9.8 7.2 65 3.2 NNW 17 28 9 15 1011.1 1011.1 0.0
28/06:30pm 14.1 9.7 7.4 64 3.3 NNW 20 32 11 17 1010.8 - 0.0
28/06:00pm 14.0 10.2 7.5 65 3.2 NW 17 26 9 14 1010.8 1010.8 0.0
28/05:30pm 14.2 10.0 7.5 64 3.3 NW 19 30 10 16 1010.6 - 0.0
28/05:00pm 14.9 10.5 7.5 61 3.7 NW 20 32 11 17 1010.7 1010.7 0.0
28/04:30pm 15.7 11.4 7.7 59 4.0 NW 20 35 11 19 1010.6 - 0.0
28/04:00pm 16.4 12.7 7.9 57 4.3 NW 17 30 9 16 1010.6 1010.6 0.0
28/03:30pm 17.1 13.1 8.3 56 4.5 NW 19 32 10 17 1010.3 - 0.0
28/03:00pm 17.2 13.0 8.1 55 4.6 NW 20 35 11 19 1010.3 1010.3 0.0
28/02:30pm 17.4 13.4 8.3 55 4.7 NW 19 32 10 17 1010.9 - 0.0
28/02:00pm 17.2 12.2 8.1 55 4.6 NW 24 43 13 23 1011.0 1011.0 0.0
28/01:30pm 17.1 12.0 7.5 53 4.8 NW 24 46 13 25 1011.1 - 0.0
28/01:00pm 17.1 12.5 8.0 55 4.6 NW 22 35 12 19 1011.8 1011.8 0.0
28/12:30pm 16.8 11.8 8.0 56 4.5 NW 24 39 13 21 1012.6 - 0.0
28/12:00pm 16.6 12.5 7.8 56 4.4 NW 19 32 10 17 1013.1 1013.1 0.0
28/11:30am 16.3 11.5 7.5 56 4.4 NW 22 35 12 19 1013.4 - 0.0
28/11:00am 15.9 11.6 7.7 58 4.1 NNW 20 32 11 17 1013.4 1013.4 0.0
28/10:30am 15.4 10.1 6.9 57 4.2 NNW 24 43 13 23 1013.6 - 0.0
28/10:00am 14.9 10.6 7.0 59 3.9 NNW 19 33 10 18 1013.9 1013.9 0.0
28/09:30am 14.3 9.9 6.6 60 3.7 NNW 19 32 10 17 1013.9 - 0.0
28/09:00am 13.8 9.3 6.2 60 3.6 NNW 19 30 10 16 1014.1 1014.1 0.0
28/08:30am 12.9 9.1 6.0 63 3.3 NNW 15 22 8 12 1014.2 - 0.0
28/08:00am 12.2 8.0 5.8 65 3.0 NNW 17 26 9 14 1014.5 1014.5 0.0
28/07:30am 11.8 7.2 5.7 66 2.8 NNW 19 26 10 14 1014.6 - 0.0
28/07:00am 12.1 7.0 5.9 66 2.9 NNW 22 39 12 21 1014.6 1014.6 0.0
28/06:30am 12.1 7.9 5.9 66 2.9 NNW 17 30 9 16 1014.6 - 0.0
28/06:00am 12.3 7.2 6.1 66 2.9 NNW 22 41 12 22 1014.6 1014.6 0.0
28/05:30am 12.2 7.1 6.0 66 2.9 NNW 22 35 12 19 1014.4 - 0.0
28/05:00am 11.6 9.4 6.3 70 2.5 WNW 7 13 4 7 1014.9 1014.9 0.0
28/04:30am 11.8 7.4 6.5 70 2.5 NNW 19 30 10 16 1014.9 - 0.0
28/04:00am 12.0 8.0 6.7 70 2.5 NNW 17 30 9 16 1015.3 1015.3 0.0
28/03:30am 12.1 8.1 6.6 69 2.6 NW 17 30 9 16 1015.6 - 0.0
28/03:00am 12.3 7.8 6.8 69 2.6 NNW 20 33 11 18 1015.6 1015.6 0.0
28/02:30am 12.5 6.9 7.2 70 2.6 NNW 26 39 14 21 1015.7 - 0.0
28/02:00am 12.2 8.0 7.3 72 2.4 NNW 19 33 10 18 1015.9 1015.9 0.0
28/01:30am 12.1 7.7 7.4 73 2.3 NNW 20 30 11 16 1016.2 - 0.0
28/01:00am 12.0 7.8 7.5 74 2.2 NNW 19 32 10 17 1016.6 1016.6 0.0
28/12:30am 12.2 8.1 7.9 75 2.1 NNW 19 30 10 16 1017.0 - 0.0
28/12:00am 12.2 8.1 7.9 75 2.1 NNW 19 28 10 15 1017.4 1017.4 0.0
 
Date/Time
EST
Temp
°C
App
Temp
°C
Dew
Point
Rel
Hum
%
Delta-T
°C
Wind Press
QNH
hPa
Press
MSL
hPa
Rain
since 9 am
mm
Dir
 
Spd
km/h
Gust
km/h
Spd
kts
Gust
kts
27/11:30pm 12.2 8.2 8.1 76 2.0 NNW 19 26 10 14 1017.6 - 0.0
27/11:00pm 12.2 8.0 8.1 76 2.0 NNW 20 32 11 17 1017.7 1017.7 0.0
27/10:30pm 12.2 8.2 8.1 76 2.0 NNW 19 32 10 17 1018.3 - 0.0
27/10:00pm 12.3 8.3 8.2 76 2.0 NNW 19 32 10 17 1018.6 1018.6 0.0
27/09:30pm 12.1 8.4 8.0 76 2.0 NNW 17 28 9 15 1018.9 - 0.0
27/09:00pm 11.7 8.3 7.6 76 2.0 NNW 15 24 8 13 1019.0 1019.0 0.0
27/08:30pm 11.8 8.4 7.7 76 2.0 NNW 15 22 8 12 1019.2 - 0.0
27/08:00pm 11.0 8.8 7.9 81 1.5 N 9 13 5 7 1019.4 1019.4 0.0
27/07:30pm 11.4 8.8 7.7 78 1.8 N 11 15 6 8 1019.6 - 0.0
27/07:00pm 11.7 9.4 7.6 76 2.0 N 9 15 5 8 1019.7 1019.7 0.0
27/06:30pm 12.5 9.9 7.8 73 2.3 NNW 11 24 6 13 1019.5 - 0.0
27/06:00pm 12.9 9.6 8.2 73 2.3 NNW 15 22 8 12 1019.3 1019.3 0.0
27/05:30pm 12.9 9.7 8.6 75 2.1 NNW 15 22 8 12 1019.5 - 0.0
27/05:00pm 13.2 10.5 8.9 75 2.2 NNW 13 20 7 11 1019.3 1019.3 0.0

Other Formats:

Comma delimited format used in spreadsheet applications
http://www.bom.gov.au/fwo/IDV60801/IDV60801.94886.axf

JavaScript Object Notation format (JSON) in row-major order
http://www.bom.gov.au/fwo/IDV60801/IDV60801.94886.json